CST,Max TemperatureF,Mean TemperatureF,Min TemperatureF,Max Dew PointF,MeanDew PointF,Min DewpointF,Max Humidity, Mean Humidity, Min Humidity, Max Sea Level PressureIn, Mean Sea Level PressureIn, Min Sea Level PressureIn, Max VisibilityMiles, Mean VisibilityMiles, Min VisibilityMiles, Max Wind SpeedMPH, Mean Wind SpeedMPH, Max Gust SpeedMPH,PrecipitationIn, CloudCover, Events, WindDirDegrees
2013-2-1,29,16,4,14,6,0,86,59,39,30.52,30.39,30.24,10,10,10,12,5,,0.00,3,,181
2013-2-2,45,36,26,32,24,14,82,61,47,30.21,30.15,30.06,10,10,10,14,8,23,0.00,5,,250
2013-2-3,45,40,35,32,23,16,75,53,31,30.24,30.12,29.96,10,10,10,18,9,31,0.00,1,,287
2013-2-4,59,46,30,39,30,22,90,54,34,29.96,29.87,29.79,10,10,10,14,10,23,0.00,2,,255
2013-2-5,60,42,24,33,28,24,99,64,28,30.10,29.99,29.93,10,10,10,13,4,21,0.00,0,,300
2013-2-6,57,44,30,34,31,29,94,62,35,30.19,30.10,30.01,10,10,10,15,7,24,0.00,2,,134
2013-2-7,55,47,39,50,44,34,100,92,60,30.09,29.96,29.87,10,8,1,17,8,23,0.56,8,Rain,290
2013-2-8,39,34,30,39,32,28,100,94,79,30.35,30.22,30.09,10,8,1,17,11,23,0.00,8,,348
2013-2-9,44,36,29,37,32,28,100,88,53,30.32,30.12,29.94,10,10,6,23,11,29,0.13,7,Rain,147
2013-2-10,61,49,37,52,43,25,100,89,28,29.92,29.73,29.58,10,9,3,25,15,34,0.27,7,Rain-Thunderstorm,174
2013-2-11,49,41,33,26,24,21,75,56,34,30.17,30.09,29.95,10,10,10,16,8,29,0.00,0,,264
2013-2-12,44,35,26,34,31,24,100,88,51,30.17,30.02,29.98,10,8,2,9,3,,0.28,7,Rain-Snow,10
2013-2-13,44,38,31,36,33,31,100,93,64,29.96,29.92,29.89,10,8,2,12,3,17,0.04,6,Rain-Snow,260
2013-2-14,54,45,36,32,29,26,79,57,34,30.11,29.98,29.88,10,10,10,14,7,18,0.00,3,,270
2013-2-15,40,32,23,29,20,7,81,60,28,30.29,30.23,30.11,10,10,10,21,9,22,0.00,4,Snow,315
2013-2-16,36,28,19,20,14,9,78,59,34,30.31,30.24,30.17,10,10,10,9,5,,0.00,4,,299
2013-2-17,56,43,30,34,24,17,64,48,31,30.16,30.01,29.86,10,10,10,16,8,23,0.00,2,,148
2013-2-18,53,42,30,50,43,22,100,88,62,30.02,29.70,29.55,10,10,2,23,15,36,0.15,7,Rain-Thunderstorm,207
2013-2-19,38,30,22,20,12,1,76,50,22,30.34,30.20,30.04,10,10,10,18,10,29,0.00,0,,289
2013-2-20,29,24,19,14,9,6,61,52,41,30.39,30.30,30.22,10,10,10,9,5,,0.00,6,,40
2013-2-21,32,28,24,32,25,14,100,94,57,30.22,29.94,29.78,10,5,1,21,10,28,0.81,8,Rain-Thunderstorm,80
2013-2-22,32,26,20,33,27,20,100,93,73,30.10,29.93,29.82,10,10,4,12,5,17,0.00,7,Snow,238
2013-2-23,37,27,17,21,20,17,98,76,50,30.10,30.04,30.00,10,10,10,9,2,,0.00,0,,267
2013-2-24,48,34,21,30,25,20,93,68,47,30.09,30.02,29.97,10,10,10,12,5,,0.00,0,,116
2013-2-25,48,39,30,34,31,23,100,84,36,29.97,29.71,29.48,10,7,2,21,11,30,1.05,7,Rain-Snow-Thunderstorm,46
2013-2-26,34,33,31,34,33,32,100,99,93,29.77,29.47,29.31,10,7,2,21,12,29,0.39,8,Rain-Snow,327
2013-2-27,33,32,30,32,29,26,100,91,85,29.99,29.89,29.78,10,9,3,15,10,23,0.00,8,Rain-Snow,277
2013-2-28,32,30,29,30,27,25,100,89,80,30.16,30.10,29.97,10,8,2,13,8,18,0.00,8,Snow,293